createdAt,value
2019-05-30T00:01:56.500Z,1.50
2019-05-30T00:04:27.443Z,1.97
2019-05-30T00:06:58.699Z,1.87
2019-05-30T00:09:30.168Z,1.57
2019-05-30T00:12:01.093Z,1.27
2019-05-30T00:14:32.479Z,2.03
2019-05-30T00:17:05.002Z,1.77
2019-05-30T00:19:36.198Z,1.40
2019-05-30T00:22:07.347Z,2.00
2019-05-30T00:24:38.890Z,1.80
2019-05-30T00:27:09.868Z,2.43
2019-05-30T00:29:41.209Z,1.73
2019-05-30T00:32:12.290Z,1.40
2019-05-30T00:34:51.123Z,1.80
2019-05-30T00:37:22.620Z,2.47
2019-05-30T00:39:53.517Z,1.67
2019-05-30T00:42:24.628Z,1.30
2019-05-30T00:44:55.852Z,1.90
2019-05-30T00:47:27.252Z,2.07
2019-05-30T00:49:58.570Z,2.20
2019-05-30T00:52:29.993Z,1.30
2019-05-30T00:55:00.729Z,1.70
2019-05-30T00:57:34.464Z,1.47
2019-05-30T01:00:07.766Z,1.90
2019-05-30T01:02:38.811Z,1.50
2019-05-30T01:05:10.034Z,1.80
2019-05-30T01:07:40.650Z,1.30
2019-05-30T01:10:12.000Z,1.93
2019-05-30T01:12:42.974Z,2.00
2019-05-30T01:15:15.372Z,1.17
2019-05-30T01:17:46.479Z,1.80
2019-05-30T01:20:18.919Z,2.63
2019-05-30T01:22:49.803Z,1.90
2019-05-30T01:25:20.745Z,2.00
2019-05-30T01:27:51.052Z,1.80
2019-05-30T01:30:21.795Z,1.97
2019-05-30T01:32:53.009Z,1.93
2019-05-30T01:35:24.555Z,1.90
2019-05-30T01:37:55.494Z,1.60
2019-05-30T01:40:27.013Z,1.37
2019-05-30T01:42:58.003Z,1.47
2019-05-30T01:45:29.145Z,1.87
2019-05-30T01:48:00.507Z,1.60
2019-05-30T01:50:31.448Z,1.30
2019-05-30T01:53:02.642Z,2.30
2019-05-30T01:55:33.746Z,1.83
2019-05-30T01:58:05.890Z,1.73
2019-05-30T02:00:40.337Z,1.70
2019-05-30T02:03:11.697Z,1.90
2019-05-30T02:05:42.831Z,2.23
2019-05-30T02:08:13.599Z,2.10
2019-05-30T02:10:44.829Z,2.13
2019-05-30T02:13:15.517Z,1.73
2019-05-30T02:15:46.611Z,1.30
2019-05-30T02:18:16.728Z,2.53
2019-05-30T02:20:47.791Z,0.97
2019-05-30T02:23:18.227Z,2.23
2019-05-30T02:25:49.109Z,2.00
2019-05-30T02:28:20.303Z,2.47
2019-05-30T02:30:50.605Z,2.10
2019-05-30T02:33:21.574Z,1.60
2019-05-30T02:35:52.931Z,1.60
2019-05-30T02:38:24.086Z,2.40
2019-05-30T02:40:54.524Z,1.70
2019-05-30T02:43:25.555Z,1.40
2019-05-30T02:45:56.498Z,1.57
2019-05-30T02:48:27.655Z,1.40
2019-05-30T02:50:58.103Z,1.50
2019-05-30T02:53:28.930Z,1.53
2019-05-30T02:56:01.322Z,1.50
2019-05-30T02:58:32.903Z,1.40
2019-05-30T03:01:04.494Z,1.30
2019-05-30T03:03:35.925Z,1.47
2019-05-30T03:06:08.232Z,1.70
2019-05-30T03:08:38.881Z,1.23
2019-05-30T03:11:15.045Z,1.77
2019-05-30T03:13:44.666Z,2.33
2019-05-30T03:16:15.811Z,2.03
2019-05-30T03:18:46.952Z,2.40
2019-05-30T03:21:17.595Z,1.83
2019-05-30T03:23:49.252Z,1.30
2019-05-30T03:26:22.236Z,1.50
2019-05-30T03:28:53.728Z,1.93
2019-05-30T03:31:30.043Z,2.10
2019-05-30T03:34:00.758Z,1.23
2019-05-30T03:36:32.241Z,1.30
2019-05-30T03:39:05.488Z,1.40
2019-05-30T03:41:37.320Z,1.87
2019-05-30T03:44:10.733Z,2.10
2019-05-30T03:46:44.738Z,1.47
2019-05-30T03:49:20.188Z,2.50
2019-05-30T03:51:53.386Z,2.00
2019-05-30T03:54:26.050Z,1.50
2019-05-30T03:57:09.058Z,1.93
2019-05-30T03:59:46.660Z,1.70
2019-05-30T04:02:32.709Z,1.30
2019-05-30T04:05:09.090Z,1.63
2019-05-30T04:07:45.372Z,2.03
2019-05-30T04:10:19.827Z,1.80
2019-05-30T04:13:09.902Z,1.57
2019-05-30T04:15:40.921Z,1.97
2019-05-30T04:18:15.794Z,1.20
2019-05-30T04:20:45.655Z,1.63
2019-05-30T04:23:16.891Z,1.60
2019-05-30T04:25:47.733Z,1.30
2019-05-30T04:28:18.925Z,2.83
2019-05-30T04:30:51.880Z,1.93
2019-05-30T04:33:32.655Z,1.57
2019-05-30T04:35:55.808Z,1.23
2019-05-30T04:38:26.591Z,1.80
2019-05-30T04:40:57.674Z,2.27
2019-05-30T04:43:28.611Z,1.33
2019-05-30T04:45:58.955Z,1.60
2019-05-30T04:48:30.147Z,1.90
2019-05-30T04:51:00.862Z,2.17
2019-05-30T04:53:32.016Z,2.10
2019-05-30T04:56:02.748Z,1.47
2019-05-30T04:58:33.862Z,2.37
2019-05-30T05:01:06.274Z,2.30
2019-05-30T05:03:45.675Z,1.60
2019-05-30T05:06:11.428Z,2.30
2019-05-30T05:08:41.938Z,2.43
2019-05-30T05:11:16.344Z,1.33
2019-05-30T05:13:45.285Z,1.90
2019-05-30T05:16:27.097Z,2.30
2019-05-30T05:18:49.243Z,2.43
2019-05-30T05:21:21.034Z,2.27
2019-05-30T05:23:52.565Z,1.80
2019-05-30T05:26:23.700Z,2.10
2019-05-30T05:28:55.252Z,2.20
2019-05-30T05:31:26.410Z,3.70
2019-05-30T05:33:57.443Z,2.47
2019-05-30T05:36:29.017Z,1.70
2019-05-30T05:38:59.797Z,2.40
2019-05-30T05:41:30.135Z,2.40
2019-05-30T05:44:01.137Z,3.00
2019-05-30T05:46:32.025Z,1.87
2019-05-30T05:49:03.042Z,3.07
2019-05-30T05:51:34.356Z,2.30
2019-05-30T05:54:05.444Z,2.17
2019-05-30T05:56:36.441Z,2.60
2019-05-30T05:59:07.796Z,2.40
2019-05-30T06:01:39.354Z,2.23
2019-05-30T06:04:13.540Z,2.53
2019-05-30T06:06:44.112Z,2.47
2019-05-30T06:09:16.439Z,1.80
2019-05-30T06:11:49.035Z,2.63
2019-05-30T06:14:19.903Z,2.40
2019-05-30T06:16:50.019Z,2.37
2019-05-30T06:19:21.320Z,2.63
2019-05-30T06:21:54.339Z,2.40
2019-05-30T06:24:25.732Z,3.03
2019-05-30T06:26:57.146Z,2.20
2019-05-30T06:29:28.590Z,2.07
2019-05-30T06:31:59.857Z,2.30
2019-05-30T06:34:38.809Z,1.63
2019-05-30T06:37:03.669Z,2.40
2019-05-30T06:39:36.105Z,2.50
2019-05-30T06:42:07.100Z,1.50
2019-05-30T06:44:37.762Z,2.03
2019-05-30T06:47:08.228Z,2.33
2019-05-30T06:49:38.993Z,2.03
2019-05-30T06:52:09.596Z,2.03
2019-05-30T06:54:40.441Z,1.50
2019-05-30T06:57:11.789Z,2.43
2019-05-30T06:59:42.681Z,2.43
2019-05-30T07:02:13.675Z,2.03
2019-05-30T07:04:51.613Z,2.53
2019-05-30T07:07:17.250Z,2.40
2019-05-30T07:09:48.708Z,1.93
2019-05-30T07:12:20.099Z,2.70
2019-05-30T07:14:51.506Z,3.57
2019-05-30T07:17:23.216Z,2.13
2019-05-30T07:19:54.570Z,2.20
2019-05-30T07:22:25.770Z,1.80
2019-05-30T07:24:56.491Z,2.47
2019-05-30T07:27:27.891Z,1.97
2019-05-30T07:29:58.347Z,1.97
2019-05-30T07:32:30.030Z,2.80
2019-05-30T07:35:06.895Z,2.10
2019-05-30T07:37:34.335Z,2.17
2019-05-30T07:40:06.222Z,2.57
2019-05-30T07:42:37.605Z,2.37
2019-05-30T07:45:10.515Z,2.20
2019-05-30T07:47:41.704Z,2.53
2019-05-30T07:50:13.886Z,2.30
2019-05-30T07:52:44.979Z,2.43
2019-05-30T07:55:16.589Z,2.40
2019-05-30T07:57:48.141Z,2.23
2019-05-30T08:00:21.131Z,1.83
2019-05-30T08:02:52.087Z,2.57
2019-05-30T08:05:24.840Z,2.07
2019-05-30T08:07:56.221Z,1.83
2019-05-30T08:10:27.786Z,2.30
2019-05-30T08:12:58.704Z,1.97
2019-05-30T08:15:29.464Z,1.43
2019-05-30T08:18:00.618Z,2.20
2019-05-30T08:20:31.672Z,1.70
2019-05-30T08:23:03.431Z,2.20
2019-05-30T08:25:34.272Z,1.97
2019-05-30T08:28:05.499Z,1.60
2019-05-30T08:30:36.989Z,2.03
2019-05-30T08:33:09.229Z,1.80
2019-05-30T08:35:49.211Z,2.57
2019-05-30T08:38:12.453Z,2.00
2019-05-30T08:40:43.305Z,2.10
2019-05-30T08:43:14.131Z,2.37
2019-05-30T08:45:44.621Z,1.80
2019-05-30T08:48:15.268Z,2.17
2019-05-30T08:50:46.217Z,1.47
2019-05-30T08:53:17.052Z,1.73
2019-05-30T08:55:48.004Z,1.47
2019-05-30T08:58:18.431Z,1.50
2019-05-30T09:00:49.312Z,1.40
2019-05-30T09:03:20.420Z,1.70
2019-05-30T09:06:02.773Z,2.27
2019-05-30T09:08:23.356Z,1.53
2019-05-30T09:10:54.367Z,1.47
2019-05-30T09:13:25.187Z,1.43
2019-05-30T09:15:55.166Z,1.60
2019-05-30T09:18:26.078Z,2.10
2019-05-30T09:20:56.282Z,1.10
2019-05-30T09:23:27.115Z,1.13
2019-05-30T09:25:58.784Z,1.17
2019-05-30T09:28:29.650Z,1.10
2019-05-30T09:31:00.198Z,1.60
2019-05-30T09:33:30.907Z,1.57
2019-05-30T09:36:12.842Z,1.40
2019-05-30T09:38:35.306Z,1.20
2019-05-30T09:41:06.132Z,1.03
2019-05-30T09:43:37.795Z,0.80
2019-05-30T09:46:08.956Z,1.00
2019-05-30T09:48:41.457Z,0.93
2019-05-30T09:51:12.610Z,1.10
2019-05-30T09:53:43.835Z,1.00
2019-05-30T09:56:15.390Z,1.13
2019-05-30T09:58:47.654Z,1.20
2019-05-30T10:01:19.533Z,1.10
2019-05-30T10:03:50.705Z,1.07
2019-05-30T10:06:29.465Z,0.83
2019-05-30T10:08:53.952Z,1.00
2019-05-30T10:11:25.526Z,1.27
2019-05-30T10:13:56.990Z,0.90
2019-05-30T10:16:29.071Z,0.90
2019-05-30T10:18:59.546Z,1.10
2019-05-30T10:21:31.169Z,0.83
2019-05-30T10:24:02.091Z,1.10
2019-05-30T10:26:32.890Z,1.10
2019-05-30T10:29:03.914Z,1.17
2019-05-30T10:31:34.527Z,1.13
2019-05-30T10:34:06.082Z,1.00
2019-05-30T10:36:44.438Z,1.03
2019-05-30T10:39:09.187Z,0.80
2019-05-30T10:41:40.564Z,0.87
2019-05-30T10:44:10.987Z,1.17
2019-05-30T10:46:42.030Z,0.93
2019-05-30T10:49:13.183Z,1.10
2019-05-30T10:51:46.163Z,0.80
2019-05-30T10:54:17.359Z,0.97
2019-05-30T10:56:49.640Z,0.90
2019-05-30T10:59:21.072Z,1.00
2019-05-30T11:01:52.894Z,0.80
2019-05-30T11:04:27.364Z,1.03
2019-05-30T11:07:10.981Z,1.30
2019-05-30T11:09:41.650Z,1.00
2019-05-30T11:12:12.319Z,0.80
2019-05-30T11:14:43.295Z,0.70
2019-05-30T11:17:14.103Z,1.10
2019-05-30T11:19:45.370Z,0.73
2019-05-30T11:22:17.776Z,2.77
2019-05-30T11:24:50.337Z,0.63
2019-05-30T11:27:22.017Z,0.60
2019-05-30T11:29:52.986Z,0.73
2019-05-30T11:32:24.218Z,0.50
2019-05-30T11:34:55.432Z,0.60
2019-05-30T11:37:28.730Z,0.63
2019-05-30T11:40:00.722Z,1.10
2019-05-30T11:42:31.909Z,1.07
2019-05-30T11:45:03.026Z,1.70
2019-05-30T11:47:34.373Z,0.93
2019-05-30T11:50:07.161Z,0.70
2019-05-30T11:52:38.301Z,1.03
2019-05-30T11:55:10.947Z,0.80
2019-05-30T11:57:42.198Z,1.23
2019-05-30T12:00:15.648Z,0.80
2019-05-30T12:02:47.867Z,0.80
2019-05-30T12:05:19.023Z,1.00
2019-05-30T12:07:50.723Z,0.67
2019-05-30T12:10:21.735Z,1.20
2019-05-30T12:12:53.214Z,0.60
2019-05-30T12:15:25.508Z,1.20
2019-05-30T12:17:57.477Z,1.00
2019-05-30T12:20:28.582Z,0.80
2019-05-30T12:23:00.027Z,1.07
2019-05-30T12:25:30.774Z,1.07
2019-05-30T12:28:04.242Z,1.10
2019-05-30T12:30:34.965Z,0.80
2019-05-30T12:33:05.446Z,0.77
2019-05-30T12:35:36.630Z,0.77
2019-05-30T12:38:07.587Z,1.37
2019-05-30T12:40:38.924Z,0.90
2019-05-30T12:43:10.776Z,1.07
2019-05-30T12:45:42.046Z,0.70
2019-05-30T12:48:13.000Z,1.03
2019-05-30T12:50:44.343Z,0.97
2019-05-30T12:53:15.520Z,1.00
2019-05-30T12:55:46.438Z,1.33
2019-05-30T12:58:17.175Z,1.47
2019-05-30T13:00:48.713Z,0.97
2019-05-30T13:03:20.102Z,1.13
2019-05-30T13:05:50.815Z,1.73
2019-05-30T13:08:22.208Z,1.17
2019-05-30T13:10:53.518Z,0.60
2019-05-30T13:13:25.082Z,1.27
2019-05-30T13:15:56.641Z,1.00
2019-05-30T13:18:28.398Z,1.20
2019-05-30T13:20:59.996Z,0.87
2019-05-30T13:23:31.518Z,0.63
2019-05-30T13:26:02.008Z,1.00
2019-05-30T13:28:34.178Z,0.87
2019-05-30T13:31:06.969Z,0.90
2019-05-30T13:33:38.730Z,0.93
2019-05-30T13:36:11.354Z,1.07
2019-05-30T13:38:42.294Z,1.13
2019-05-30T13:41:14.655Z,1.23
2019-05-30T13:43:45.499Z,0.87
2019-05-30T13:46:16.558Z,1.00
2019-05-30T13:48:47.576Z,1.40
2019-05-30T13:51:19.061Z,1.30
2019-05-30T13:53:50.202Z,0.90
2019-05-30T13:56:21.363Z,1.00
2019-05-30T13:58:52.924Z,1.63
2019-05-30T14:01:24.271Z,1.00
2019-05-30T14:03:55.416Z,1.00
2019-05-30T14:06:25.730Z,1.33
2019-05-30T14:08:56.685Z,1.10
2019-05-30T14:11:28.065Z,0.67
2019-05-30T14:13:58.876Z,0.90
2019-05-30T14:16:29.927Z,0.90
2019-05-30T14:19:01.058Z,1.03
2019-05-30T14:21:32.635Z,1.03
2019-05-30T14:24:03.450Z,1.57
2019-05-30T14:27:13.879Z,1.30
2019-05-30T14:30:09.126Z,1.23
2019-05-30T14:33:17.261Z,1.23
2019-05-30T14:39:11.218Z,1.20
2019-05-30T14:41:42.849Z,1.00
2019-05-30T14:44:13.407Z,1.13
2019-05-30T14:46:45.751Z,1.33
2019-05-30T14:49:17.351Z,1.43
2019-05-30T14:51:48.669Z,1.03
2019-05-30T14:54:20.020Z,1.43
2019-05-30T14:56:51.393Z,1.37
2019-05-30T14:59:22.316Z,1.20
2019-05-30T15:01:53.877Z,1.20
2019-05-30T15:04:25.431Z,1.00
2019-05-30T15:06:56.784Z,1.07
2019-05-30T15:09:27.798Z,1.30
2019-05-30T15:12:00.643Z,1.57
2019-05-30T15:14:34.536Z,1.00
2019-05-30T15:17:06.114Z,1.00
2019-05-30T15:19:37.020Z,1.00
2019-05-30T15:22:07.587Z,1.00
2019-05-30T15:24:38.387Z,1.10
2019-05-30T15:27:10.057Z,1.13
2019-05-30T15:29:41.278Z,1.07
2019-05-30T15:32:14.436Z,1.40
2019-05-30T15:34:45.364Z,1.50
2019-05-30T15:37:17.049Z,0.73
2019-05-30T15:39:48.492Z,0.70
2019-05-30T15:42:18.946Z,1.03
2019-05-30T15:44:49.954Z,1.30
2019-05-30T15:47:20.688Z,1.13
2019-05-30T15:49:52.342Z,1.13
2019-05-30T15:52:23.098Z,0.70
2019-05-30T15:54:53.786Z,1.00
2019-05-30T15:57:25.080Z,0.90
2019-05-30T15:59:56.220Z,1.23
2019-05-30T16:02:26.961Z,0.90
2019-05-30T16:04:57.674Z,0.67
2019-05-30T16:07:28.850Z,0.87
2019-05-30T16:09:59.598Z,0.90
2019-05-30T16:12:30.648Z,0.80
2019-05-30T16:15:01.690Z,0.83
2019-05-30T16:17:34.254Z,0.50
2019-05-30T16:20:05.632Z,0.60
2019-05-30T16:22:36.326Z,0.70
2019-05-30T16:25:09.290Z,0.90
2019-05-30T16:27:40.294Z,0.83
2019-05-30T16:30:12.277Z,1.50
2019-05-30T16:32:43.807Z,1.07
2019-05-30T16:35:15.989Z,0.70
2019-05-30T16:37:47.336Z,2.53
2019-05-30T16:40:18.619Z,1.00
2019-05-30T16:42:49.397Z,0.90
2019-05-30T16:45:23.694Z,0.80
2019-05-30T16:47:53.362Z,0.63
2019-05-30T16:50:26.906Z,1.03
2019-05-30T16:52:58.302Z,1.00
2019-05-30T16:55:29.023Z,1.17
2019-05-30T16:57:59.374Z,1.00
2019-05-30T17:00:29.796Z,0.80
2019-05-30T17:03:01.057Z,1.20
2019-05-30T17:05:32.336Z,0.73
2019-05-30T17:08:04.187Z,0.80
2019-05-30T17:10:36.710Z,0.60
2019-05-30T17:13:08.334Z,1.00
2019-05-30T17:15:39.481Z,0.77
2019-05-30T17:18:10.616Z,1.20
2019-05-30T17:20:41.136Z,1.00
2019-05-30T17:23:20.690Z,1.27
2019-05-30T17:25:52.262Z,1.10
2019-05-30T17:28:24.350Z,0.90
2019-05-30T17:30:55.784Z,1.20
2019-05-30T17:33:27.095Z,0.83
2019-05-30T17:35:59.517Z,0.83
2019-05-30T17:38:29.685Z,1.07
2019-05-30T17:41:01.051Z,1.20
2019-05-30T17:43:32.358Z,1.27
2019-05-30T17:46:03.495Z,1.60
2019-05-30T17:48:34.847Z,1.47
2019-05-30T17:51:07.435Z,1.30
2019-05-30T17:53:38.580Z,1.63
2019-05-30T17:56:09.526Z,1.00
2019-05-30T17:58:39.999Z,0.90
2019-05-30T18:01:10.795Z,0.97
2019-05-30T18:03:42.555Z,0.80
2019-05-30T18:06:13.279Z,0.93
2019-05-30T18:08:44.072Z,1.13
2019-05-30T18:11:14.945Z,1.00
2019-05-30T18:13:46.139Z,1.20
2019-05-30T18:16:17.695Z,0.70
2019-05-30T18:18:47.817Z,0.90
2019-05-30T18:21:19.114Z,1.03
2019-05-30T18:23:50.295Z,0.50
2019-05-30T18:26:21.547Z,0.70
2019-05-30T18:28:52.111Z,0.73
2019-05-30T18:31:23.874Z,0.93
2019-05-30T18:33:55.529Z,1.03
2019-05-30T18:36:26.871Z,1.10
2019-05-30T18:38:57.464Z,0.60
2019-05-30T18:41:28.831Z,0.90
2019-05-30T18:44:00.517Z,0.90
2019-05-30T18:46:31.426Z,1.07
2019-05-30T18:49:02.016Z,0.63
2019-05-30T18:51:33.960Z,0.90
2019-05-30T18:54:04.663Z,1.27
2019-05-30T18:56:36.938Z,0.77
2019-05-30T18:59:09.045Z,1.00
2019-05-30T19:01:40.651Z,1.00
2019-05-30T19:04:11.925Z,0.90
2019-05-30T19:06:43.107Z,1.27
2019-05-30T19:09:13.846Z,0.60
2019-05-30T19:11:44.964Z,1.13
2019-05-30T19:14:15.704Z,0.80
2019-05-30T19:16:46.889Z,1.27
2019-05-30T19:19:18.849Z,1.17
2019-05-30T19:21:49.554Z,0.90
2019-05-30T19:24:20.325Z,1.00
2019-05-30T19:26:50.808Z,0.83
2019-05-30T19:29:21.378Z,0.80
2019-05-30T19:31:52.552Z,0.70
2019-05-30T19:34:23.700Z,1.07
2019-05-30T19:36:54.148Z,0.60
2019-05-30T19:39:27.199Z,1.63
2019-05-30T19:41:58.134Z,1.07
2019-05-30T19:44:29.942Z,1.20
2019-05-30T19:47:01.751Z,0.80
2019-05-30T19:49:33.037Z,1.17
2019-05-30T19:52:03.479Z,0.93
2019-05-30T19:54:35.133Z,1.10
2019-05-30T19:57:06.678Z,0.80
2019-05-30T19:59:39.964Z,0.70
2019-05-30T20:02:10.683Z,0.90
2019-05-30T20:04:42.219Z,0.87
2019-05-30T20:07:12.559Z,1.00
2019-05-30T20:09:43.718Z,0.83
2019-05-30T20:12:14.812Z,0.73
2019-05-30T20:14:46.268Z,1.10
2019-05-30T20:17:16.949Z,0.90
2019-05-30T20:19:48.194Z,1.13
2019-05-30T20:22:19.399Z,1.20
2019-05-30T20:24:50.345Z,1.00
2019-05-30T20:27:22.519Z,0.97
2019-05-30T20:29:53.499Z,1.13
2019-05-30T20:32:24.603Z,0.93
2019-05-30T20:34:54.997Z,1.00
2019-05-30T20:37:26.276Z,1.03
2019-05-30T20:39:57.427Z,0.90
2019-05-30T20:42:28.544Z,1.10
2019-05-30T20:44:59.077Z,0.90
2019-05-30T20:47:30.269Z,0.97
2019-05-30T20:50:02.055Z,1.13
2019-05-30T20:52:32.963Z,1.17
2019-05-30T20:55:04.147Z,0.80
2019-05-30T20:57:34.533Z,0.90
2019-05-30T21:00:07.547Z,0.90
2019-05-30T21:02:39.439Z,1.17
2019-05-30T21:05:11.485Z,1.47
2019-05-30T21:07:44.523Z,1.30
2019-05-30T21:10:17.561Z,1.60
2019-05-30T21:12:51.788Z,1.27
2019-05-30T21:15:22.719Z,0.70
2019-05-30T21:17:55.918Z,0.80
2019-05-30T21:20:26.511Z,1.00
2019-05-30T21:22:57.807Z,1.00
2019-05-30T21:25:28.555Z,1.07
2019-05-30T21:27:59.697Z,1.10
2019-05-30T21:30:30.834Z,1.30
2019-05-30T21:33:01.779Z,0.90
2019-05-30T21:35:33.595Z,1.87
2019-05-30T21:38:04.290Z,1.60
2019-05-30T21:40:35.232Z,1.90
2019-05-30T21:43:07.449Z,1.10
2019-05-30T21:45:38.543Z,1.07
2019-05-30T21:48:09.912Z,1.40
2019-05-30T21:50:44.476Z,1.53
2019-05-30T21:53:14.244Z,1.00
2019-05-30T21:55:45.971Z,0.80
2019-05-30T21:58:17.360Z,0.90
2019-05-30T22:01:31.519Z,0.90
2019-05-30T22:04:03.277Z,0.90
2019-05-30T22:06:34.446Z,1.00
2019-05-30T22:09:09.645Z,1.67
2019-05-30T22:11:39.863Z,1.23
2019-05-30T22:14:11.151Z,0.93
2019-05-30T22:16:43.978Z,1.10
2019-05-30T22:19:14.907Z,1.20
2019-05-30T22:21:46.176Z,1.50
2019-05-30T22:24:17.790Z,1.20
2019-05-30T22:26:48.448Z,1.40
2019-05-30T22:29:19.912Z,1.20
2019-05-30T22:31:51.080Z,1.30
2019-05-30T22:34:21.504Z,1.33
2019-05-30T22:36:53.324Z,1.30
2019-05-30T22:39:25.288Z,1.20
2019-05-30T22:41:56.535Z,1.10
2019-05-30T22:44:27.182Z,1.97
2019-05-30T22:46:58.327Z,1.20
2019-05-30T22:49:29.685Z,1.10
2019-05-30T22:52:00.210Z,1.20
2019-05-30T22:54:31.360Z,1.20
2019-05-30T22:57:02.559Z,1.20
2019-05-30T22:59:33.408Z,1.10
2019-05-30T23:02:04.157Z,1.20
2019-05-30T23:04:35.132Z,0.83
2019-05-30T23:07:05.459Z,1.30
2019-05-30T23:09:37.026Z,1.30
2019-05-30T23:12:08.372Z,1.30
2019-05-30T23:14:39.098Z,1.10
2019-05-30T23:17:10.304Z,0.80
2019-05-30T23:19:41.840Z,1.10
2019-05-30T23:22:12.560Z,1.10
2019-05-30T23:24:43.709Z,1.80
2019-05-30T23:27:15.033Z,1.07
2019-05-30T23:29:47.601Z,1.00
2019-05-30T23:32:19.236Z,1.47
2019-05-30T23:34:50.306Z,1.27
2019-05-30T23:37:21.452Z,1.23
2019-05-30T23:39:52.637Z,1.47
2019-05-30T23:42:24.411Z,0.87
2019-05-30T23:44:55.471Z,1.00
2019-05-30T23:47:26.722Z,1.20
2019-05-30T23:49:58.203Z,1.23
2019-05-30T23:52:30.409Z,1.57
2019-05-30T23:55:02.287Z,0.83
2019-05-30T23:57:32.710Z,1.13
